Time;durP1;ratioP1;P1;durP2;ratioP2;P2;SDS_P1;SDS_P2;PMS_P1;PMS_P2;Temp;Humidity;BMP_temperature;BMP_pressure;BME280_temperature;BME280_humidity;BME280_pressure;Samples;Min_cycle;Max_cycle;Signal;HPM_P1;HPM_P2
2024/03/14 00:00:22;;;;;;;1.90;0.82;;;12.80;73.80;;;;;;2336760;54;20934;-68
2024/03/14 00:02:48;;;;;;;2.12;0.88;;;12.80;73.60;;;;;;2582150;53;21225;-67
2024/03/14 00:05:15;;;;;;;2.00;0.70;;;12.70;73.50;;;;;;2336198;53;20913;-66
2024/03/14 00:07:42;;;;;;;2.92;0.75;;;12.70;73.50;;;;;;2336697;54;21550;-67
2024/03/14 00:10:09;;;;;;;1.83;0.80;;;12.60;73.40;;;;;;2343621;54;21004;-67
2024/03/14 00:12:38;;;;;;;2.22;0.88;;;12.60;73.40;;;;;;2334566;53;21610;-67
2024/03/14 00:15:08;;;;;;;3.35;1.00;;;12.50;73.30;;;;;;2334833;53;20973;-67
2024/03/14 00:17:37;;;;;;;3.12;1.20;;;12.50;73.30;;;;;;2581628;53;21093;-66
2024/03/14 00:20:05;;;;;;;2.50;0.98;;;12.50;73.20;;;;;;2336107;54;21411;-68
2024/03/14 00:22:32;;;;;;;3.30;1.33;;;12.40;73.20;;;;;;2582232;53;21315;-67
2024/03/14 00:24:58;;;;;;;2.33;1.00;;;12.30;73.10;;;;;;2336646;54;21270;-67
2024/03/14 00:27:24;;;;;;;2.10;0.98;;;12.30;73.20;;;;;;2336624;54;21000;-67
2024/03/14 00:29:55;;;;;;;3.12;1.00;;;12.20;73.10;;;;;;2336980;54;20957;-67
2024/03/14 00:32:24;;;;;;;3.67;1.10;;;12.20;73.00;;;;;;2339252;53;20980;-66
2024/03/14 00:34:50;;;;;;;2.10;0.90;;;12.20;72.90;;;;;;2320394;53;21050;-68
2024/03/14 00:37:16;;;;;;;2.75;1.00;;;12.10;72.80;;;;;;2578466;53;20938;-67
2024/03/14 00:39:43;;;;;;;2.60;1.10;;;12.10;72.80;;;;;;2582009;53;21474;-66
2024/03/14 00:42:09;;;;;;;1.65;0.80;;;12.00;72.70;;;;;;2337074;54;21732;-67
2024/03/14 00:44:35;;;;;;;2.12;0.77;;;11.90;72.60;;;;;;2336944;54;21740;-66
2024/03/14 00:47:05;;;;;;;1.73;0.80;;;11.90;72.70;;;;;;2581854;53;20990;-67
2024/03/14 00:49:31;;;;;;;2.20;0.90;;;11.80;72.70;;;;;;2314179;53;20953;-68
2024/03/14 00:51:57;;;;;;;2.58;0.90;;;11.80;72.70;;;;;;2333770;53;21319;-67
2024/03/14 00:54:24;;;;;;;2.28;1.00;;;11.80;72.80;;;;;;2315135;53;20964;-67
2024/03/14 00:56:50;;;;;;;2.15;0.80;;;11.70;72.60;;;;;;2314420;53;21048;-68
2024/03/14 00:59:17;;;;;;;2.28;0.80;;;11.60;72.50;;;;;;2313772;53;20953;-67
2024/03/14 01:01:46;;;;;;;2.10;0.80;;;11.60;72.50;;;;;;2313894;53;21324;-67
2024/03/14 01:04:13;;;;;;;2.25;0.95;;;11.60;72.60;;;;;;2554309;53;21176;-66
2024/03/14 01:06:39;;;;;;;2.25;1.00;;;11.50;72.60;;;;;;2314296;53;20925;-67
2024/03/14 01:09:11;;;;;;;1.77;0.88;;;11.40;72.70;;;;;;2314508;53;20976;-68
2024/03/14 01:11:40;;;;;;;2.22;0.80;;;11.40;72.80;;;;;;2316962;53;20948;-67
2024/03/14 01:14:07;;;;;;;1.67;0.85;;;11.40;72.80;;;;;;2554527;53;21506;-68
2024/03/14 01:16:34;;;;;;;2.50;0.98;;;11.40;72.90;;;;;;2295837;54;20944;-67
2024/03/14 01:19:00;;;;;;;1.87;0.85;;;11.30;72.80;;;;;;2314571;54;20921;-67
2024/03/14 01:21:27;;;;;;;2.17;1.02;;;11.20;72.80;;;;;;2315905;53;20991;-67
2024/03/14 01:23:53;;;;;;;2.40;1.05;;;11.20;72.90;;;;;;2311552;53;21001;-67
2024/03/14 01:26:20;;;;;;;2.67;0.90;;;11.20;72.90;;;;;;2550451;53;21074;-68
2024/03/14 01:28:46;;;;;;;2.35;1.10;;;11.00;72.80;;;;;;2571708;53;20969;-65
2024/03/14 01:31:14;;;;;;;2.50;0.90;;;11.10;73.00;;;;;;2335501;54;20957;-67
2024/03/14 01:33:41;;;;;;;2.65;1.00;;;11.10;73.10;;;;;;2336703;54;20929;-67
2024/03/14 01:36:07;;;;;;;3.10;1.20;;;11.10;73.10;;;;;;2581876;53;21842;-68
2024/03/14 01:38:34;;;;;;;1.60;0.73;;;11.10;73.20;;;;;;2581216;53;20989;-67
2024/03/14 01:41:01;;;;;;;1.75;0.73;;;11.00;73.10;;;;;;2336827;54;20977;-67
2024/03/14 01:43:28;;;;;;;2.00;0.70;;;11.00;73.10;;;;;;2581158;53;21831;-68
2024/03/14 01:45:57;;;;;;;2.17;0.90;;;11.00;73.10;;;;;;2582202;53;20993;-67
2024/03/14 01:48:23;;;;;;;1.52;0.62;;;11.00;73.10;;;;;;2336098;54;20981;-68
2024/03/14 01:50:50;;;;;;;1.70;0.70;;;10.90;73.20;;;;;;2581665;53;21322;-67
2024/03/14 01:53:16;;;;;;;1.27;0.60;;;10.90;73.50;;;;;;2336582;54;20930;-67
2024/03/14 01:55:42;;;;;;;3.20;0.70;;;10.90;73.80;;;;;;2337039;54;20961;-67
2024/03/14 01:58:09;;;;;;;2.00;0.70;;;10.90;74.10;;;;;;2313694;53;20976;-67
2024/03/14 02:00:40;;;;;;;1.67;0.60;;;10.90;74.30;;;;;;2313764;53;20952;-68
2024/03/14 02:03:07;;;;;;;3.17;1.30;;;10.90;74.50;;;;;;2313506;53;20944;-67
2024/03/14 02:05:41;;;;;;;4.87;1.85;;;10.90;74.70;;;;;;2553573;53;21458;-67
2024/03/14 02:08:08;;;;;;;4.60;2.37;;;11.00;74.80;;;;;;2554887;53;21805;-69
2024/03/14 02:10:36;;;;;;;4.82;1.87;;;11.00;74.90;;;;;;2553984;53;21528;-66
2024/03/14 02:13:02;;;;;;;4.28;1.90;;;11.00;74.90;;;;;;2554334;53;21044;-67
2024/03/14 02:15:28;;;;;;;2.92;1.30;;;11.00;74.70;;;;;;2553952;53;21437;-67
2024/03/14 02:17:56;;;;;;;2.50;1.10;;;11.00;74.60;;;;;;2554873;53;20980;-68
2024/03/14 02:20:23;;;;;;;3.03;1.23;;;11.00;74.60;;;;;;2318550;53;21000;-68
2024/03/14 02:22:49;;;;;;;2.72;1.15;;;11.00;74.50;;;;;;2315560;53;21365;-67
2024/03/14 02:25:18;;;;;;;3.30;1.45;;;11.00;74.50;;;;;;2326119;53;20952;-66
2024/03/14 02:27:44;;;;;;;2.55;1.05;;;11.00;74.30;;;;;;2305789;53;21358;-68
2024/03/14 02:30:11;;;;;;;2.37;1.23;;;11.00;74.20;;;;;;2312735;53;21024;-68
2024/03/14 02:32:40;;;;;;;3.90;1.23;;;11.00;74.00;;;;;;2554050;53;21056;-69
2024/03/14 02:35:06;;;;;;;2.92;1.10;;;11.00;73.90;;;;;;2554286;53;20983;-66
2024/03/14 02:37:33;;;;;;;2.00;0.98;;;11.00;73.90;;;;;;2313653;53;21420;-67
2024/03/14 02:39:59;;;;;;;2.92;1.20;;;11.00;73.90;;;;;;2313659;53;21554;-66
2024/03/14 02:42:26;;;;;;;6.03;1.20;;;11.00;73.90;;;;;;2331191;53;21251;-67
2024/03/14 02:44:52;;;;;;;2.40;0.90;;;11.00;74.00;;;;;;2316794;53;21282;-68
2024/03/14 02:47:19;;;;;;;2.58;1.00;;;10.90;74.00;;;;;;2313933;53;21011;-68
2024/03/14 02:49:45;;;;;;;2.45;0.82;;;11.00;74.30;;;;;;2313722;53;21498;-68
2024/03/14 02:52:15;;;;;;;2.62;1.00;;;10.90;74.30;;;;;;2554594;53;20961;-67
2024/03/14 02:54:42;;;;;;;2.72;1.25;;;11.00;74.50;;;;;;2553595;53;20992;-67
2024/03/14 02:57:08;;;;;;;3.05;1.20;;;10.90;74.40;;;;;;2312979;53;21462;-68
2024/03/14 02:59:34;;;;;;;2.20;0.90;;;10.80;74.30;;;;;;2313481;53;21205;-67
2024/03/14 03:02:01;;;;;;;2.53;0.98;;;11.00;74.40;;;;;;2554010;53;20986;-67
2024/03/14 03:04:30;;;;;;;2.03;0.82;;;11.00;74.40;;;;;;2313803;53;20957;-67
2024/03/14 03:07:05;;;;;;;4.55;1.05;;;11.00;74.40;;;;;;2554549;53;21067;-68
2024/03/14 03:09:31;;;;;;;1.73;0.80;;;11.00;74.40;;;;;;2553657;53;21711;-68
2024/03/14 03:11:57;;;;;;;3.50;0.80;;;11.00;74.40;;;;;;2554237;53;21024;-67
2024/03/14 03:14:24;;;;;;;1.60;0.70;;;11.00;74.30;;;;;;2553324;53;21575;-68
2024/03/14 03:16:50;;;;;;;1.83;0.70;;;11.00;74.30;;;;;;2313824;53;20981;-68
2024/03/14 03:19:18;;;;;;;2.20;0.80;;;10.90;74.10;;;;;;2553500;53;20944;-67
2024/03/14 03:21:44;;;;;;;1.95;0.85;;;10.90;74.00;;;;;;2310264;53;21499;-67
2024/03/14 03:24:12;;;;;;;2.58;1.12;;;10.90;74.00;;;;;;2305464;53;20982;-67
2024/03/14 03:26:40;;;;;;;1.37;0.70;;;10.90;74.00;;;;;;2322764;53;21007;-66
2024/03/14 03:29:07;;;;;;;3.17;0.90;;;11.00;74.10;;;;;;2336419;54;20949;-68
2024/03/14 03:31:34;;;;;;;2.17;0.95;;;10.90;74.00;;;;;;2336748;54;20961;-67
2024/03/14 03:34:01;;;;;;;2.95;1.25;;;11.00;74.10;;;;;;2581953;53;21001;-67
2024/03/14 03:36:29;;;;;;;2.55;1.20;;;10.90;74.00;;;;;;2336957;54;21929;-67
2024/03/14 03:38:56;;;;;;;3.45;1.10;;;10.90;73.90;;;;;;2581122;53;21009;-67
2024/03/14 03:41:23;;;;;;;1.92;0.77;;;10.90;73.80;;;;;;2335757;54;21029;-68
2024/03/14 03:43:50;;;;;;;2.25;1.00;;;10.80;73.60;;;;;;2554484;53;21835;-67
2024/03/14 03:46:16;;;;;;;2.83;1.25;;;10.80;73.60;;;;;;2313717;53;21674;-67
2024/03/14 03:48:42;;;;;;;2.70;1.10;;;10.80;73.60;;;;;;2313984;53;21059;-66
2024/03/14 03:51:18;;;;;;;2.00;1.00;;;10.80;73.50;;;;;;2314364;53;20981;-66
2024/03/14 03:53:45;;;;;;;2.97;1.27;;;10.80;73.20;;;;;;2314056;53;20968;-67
2024/03/14 03:56:14;;;;;;;2.60;1.30;;;10.80;73.30;;;;;;2314114;53;20972;-66
2024/03/14 03:58:43;;;;;;;2.58;1.17;;;10.70;73.20;;;;;;2313730;53;21833;-67
2024/03/14 04:01:12;;;;;;;2.20;0.98;;;10.70;73.30;;;;;;2554299;53;21029;-66
2024/03/14 04:03:41;;;;;;;1.90;0.80;;;10.70;73.30;;;;;;2313295;53;21229;-67
2024/03/14 04:06:10;;;;;;;2.40;1.08;;;10.70;73.30;;;;;;2312955;53;21044;-67
2024/03/14 04:08:39;;;;;;;2.20;1.00;;;10.60;73.10;;;;;;2313920;53;20980;-67
2024/03/14 04:11:07;;;;;;;2.40;0.85;;;10.60;73.00;;;;;;2313952;53;21482;-66
2024/03/14 04:13:33;;;;;;;2.03;0.93;;;10.60;72.90;;;;;;2313138;53;20948;-67
2024/03/14 04:16:05;;;;;;;2.00;1.12;;;10.50;72.80;;;;;;2554387;53;21811;-67
2024/03/14 04:18:32;;;;;;;3.60;1.23;;;10.50;72.90;;;;;;2313393;53;21008;-67
2024/03/14 04:20:58;;;;;;;3.15;1.00;;;10.50;73.00;;;;;;2554281;53;21032;-67
2024/03/14 04:23:24;;;;;;;2.50;1.15;;;10.50;73.00;;;;;;2313952;53;20965;-67
2024/03/14 04:25:53;;;;;;;1.83;0.90;;;10.40;72.90;;;;;;2313553;53;20956;-65
2024/03/14 04:28:23;;;;;;;;;;;10.40;72.90;;;;;;2317507;54;21044;-67
2024/03/14 04:30:52;;;;;;;2.30;1.10;;;10.40;72.20;;;;;;2314722;54;20359;-67
2024/03/14 04:33:19;;;;;;;2.30;1.08;;;10.40;72.90;;;;;;2554513;53;21100;-66
2024/03/14 04:35:48;;;;;;;2.20;1.10;;;10.30;72.80;;;;;;2554585;53;21611;-67
2024/03/14 04:38:14;;;;;;;3.45;1.17;;;10.30;72.80;;;;;;2563011;53;20957;-66
2024/03/14 04:40:43;;;;;;;2.60;1.20;;;10.30;72.80;;;;;;2580447;52;21529;-66
2024/03/14 04:43:10;;;;;;;3.55;1.60;;;10.20;72.70;;;;;;2336376;54;21455;-66
2024/03/14 04:45:36;;;;;;;2.83;1.40;;;10.20;72.70;;;;;;2336987;54;21016;-68
2024/03/14 04:48:04;;;;;;;4.62;1.50;;;10.20;72.70;;;;;;2336203;54;20933;-66
2024/03/14 04:50:30;;;;;;;3.58;1.60;;;10.10;72.60;;;;;;2336560;53;20929;-67
2024/03/14 04:52:57;;;;;;;4.50;1.50;;;10.10;72.70;;;;;;2582093;53;21033;-67
2024/03/14 04:55:23;;;;;;;2.87;1.52;;;10.10;72.80;;;;;;2581297;53;20968;-67
2024/03/14 04:57:49;;;;;;;2.62;1.40;;;10.10;72.90;;;;;;2336049;53;20969;-67
2024/03/14 05:00:22;;;;;;;2.55;1.25;;;10.00;72.90;;;;;;2336789;54;21218;-66
2024/03/14 05:02:49;;;;;;;2.78;1.33;;;10.00;72.80;;;;;;2336692;54;20945;-67
2024/03/14 05:05:15;;;;;;;2.22;1.00;;;10.00;72.80;;;;;;2581564;52;21061;-66
2024/03/14 05:07:42;;;;;;;5.53;1.23;;;10.00;72.80;;;;;;2336079;54;20989;-66
2024/03/14 05:10:09;;;;;;;2.22;1.05;;;10.00;72.80;;;;;;2336234;54;21061;-68
2024/03/14 05:12:36;;;;;;;2.22;1.25;;;9.90;73.90;;;;;;2581524;52;20930;-67
2024/03/14 05:15:05;;;;;;;2.65;1.20;;;9.90;73.90;;;;;;2336138;54;21438;-67
2024/03/14 05:17:31;;;;;;;2.62;1.48;;;9.90;73.90;;;;;;2336789;53;20953;-67
2024/03/14 05:19:58;;;;;;;3.60;1.98;;;9.90;74.00;;;;;;2337372;54;21281;-67
2024/03/14 05:22:24;;;;;;;2.83;1.40;;;9.90;74.00;;;;;;2336778;54;20914;-66
2024/03/14 05:24:52;;;;;;;3.15;1.50;;;9.80;73.90;;;;;;2336388;53;20981;-66
2024/03/14 05:27:18;;;;;;;3.87;2.20;;;9.80;73.80;;;;;;2336120;54;20957;-66
2024/03/14 05:29:46;;;;;;;4.53;2.00;;;9.80;73.90;;;;;;2336893;54;21773;-67
2024/03/14 05:32:22;;;;;;;4.50;2.17;;;9.80;73.80;;;;;;2336297;54;20945;-66
2024/03/14 05:34:50;;;;;;;3.20;1.75;;;9.80;73.70;;;;;;2580852;53;20985;-67
2024/03/14 05:37:17;;;;;;;5.12;2.22;;;9.70;73.80;;;;;;2336730;54;20973;-67
2024/03/14 05:39:43;;;;;;;3.97;2.00;;;9.70;73.80;;;;;;2336178;54;20938;-66
2024/03/14 05:42:12;;;;;;;4.05;1.85;;;9.70;73.80;;;;;;2335667;54;21001;-66
2024/03/14 05:44:41;;;;;;;4.47;1.90;;;9.70;73.90;;;;;;2581092;53;21214;-67
2024/03/14 05:47:09;;;;;;;4.00;2.03;;;9.70;73.90;;;;;;2335839;54;21232;-67
2024/03/14 05:49:38;;;;;;;4.50;1.98;;;9.60;74.00;;;;;;2336088;54;21478;-67
2024/03/14 05:52:04;;;;;;;2.87;1.40;;;9.60;74.10;;;;;;2555120;53;20960;-67
2024/03/14 05:54:31;;;;;;;3.35;1.55;;;9.60;74.20;;;;;;2569932;53;20921;-66
2024/03/14 05:56:58;;;;;;;3.20;1.60;;;9.60;74.40;;;;;;2553570;53;20985;-68
2024/03/14 05:59:24;;;;;;;2.45;1.20;;;9.60;74.40;;;;;;2553896;53;21791;-66
2024/03/14 06:01:51;;;;;;;3.30;1.35;;;9.60;74.50;;;;;;2327923;53;21458;-68
2024/03/14 06:04:18;;;;;;;2.42;1.10;;;9.60;74.50;;;;;;2562086;53;21304;-67
2024/03/14 06:06:44;;;;;;;3.17;1.48;;;9.60;74.60;;;;;;2553457;53;21205;-67
2024/03/14 06:09:15;;;;;;;2.75;1.37;;;9.60;74.70;;;;;;2313696;53;21383;-67
2024/03/14 06:11:46;;;;;;;4.72;1.62;;;9.60;74.80;;;;;;2313830;53;21027;-68
2024/03/14 06:14:14;;;;;;;3.20;1.50;;;9.60;75.60;;;;;;2314320;53;21233;-68
2024/03/14 06:16:41;;;;;;;1.90;0.93;;;9.60;74.90;;;;;;2314461;53;20932;-67
2024/03/14 06:19:09;;;;;;;2.80;1.35;;;9.60;74.90;;;;;;2331881;53;21013;-66
2024/03/14 06:21:45;;;;;;;2.37;1.02;;;9.60;75.00;;;;;;2313754;54;20975;-68
2024/03/14 06:24:15;;;;;;;2.42;1.10;;;9.60;74.90;;;;;;2581854;52;21309;-67
2024/03/14 06:26:41;;;;;;;2.10;1.00;;;9.60;74.90;;;;;;2336400;54;21009;-68
2024/03/14 06:29:07;;;;;;;2.60;1.17;;;9.60;74.90;;;;;;2340130;54;21032;-68
2024/03/14 06:31:33;;;;;;;2.20;1.12;;;9.60;75.00;;;;;;2336532;53;21014;-68
2024/03/14 06:34:02;;;;;;;2.30;1.15;;;9.60;75.00;;;;;;2582374;53;21703;-68
2024/03/14 06:36:28;;;;;;;3.40;1.80;;;9.70;75.10;;;;;;2337451;54;20961;-66
2024/03/14 06:38:55;;;;;;;4.22;2.40;;;9.70;75.10;;;;;;2581712;53;21005;-67
2024/03/14 06:41:21;;;;;;;5.22;2.50;;;9.70;75.00;;;;;;2336682;54;20949;-66
2024/03/14 06:43:51;;;;;;;4.87;2.70;;;9.70;75.00;;;;;;2337279;54;21017;-67
2024/03/14 06:46:20;;;;;;;4.03;2.28;;;9.70;75.10;;;;;;2582776;53;21001;-67
2024/03/14 06:48:46;;;;;;;3.58;1.95;;;9.70;75.10;;;;;;2581912;53;20925;-68
2024/03/14 06:51:13;;;;;;;4.18;2.40;;;9.70;75.20;;;;;;2582123;53;21017;-67
2024/03/14 06:53:40;;;;;;;3.50;2.12;;;9.70;75.10;;;;;;2582606;53;20997;-67
2024/03/14 06:56:08;;;;;;;4.40;2.60;;;9.70;75.20;;;;;;2336733;54;21045;-68
2024/03/14 06:58:34;;;;;;;4.55;2.55;;;9.70;75.20;;;;;;2581468;53;21016;-67
2024/03/14 07:01:01;;;;;;;3.65;2.15;;;9.70;75.30;;;;;;2340076;53;20953;-68
2024/03/14 07:03:27;;;;;;;3.37;2.15;;;9.80;75.60;;;;;;2335499;53;21021;-67
2024/03/14 07:05:57;;;;;;;3.30;1.98;;;9.80;75.60;;;;;;2336486;54;20965;-67
2024/03/14 07:08:30;;;;;;;2.80;1.48;;;9.80;75.70;;;;;;2582270;53;21021;-66
2024/03/14 07:10:56;;;;;;;2.10;1.08;;;9.80;75.80;;;;;;2581540;53;21859;-67
2024/03/14 07:13:23;;;;;;;2.28;1.08;;;9.80;75.90;;;;;;2582265;53;20941;-66
2024/03/14 07:15:49;;;;;;;2.17;1.10;;;9.90;76.10;;;;;;2582555;53;20933;-67
2024/03/14 07:18:16;;;;;;;1.90;0.80;;;9.90;76.20;;;;;;2340079;53;20960;-66
2024/03/14 07:20:45;;;;;;;1.50;0.80;;;10.00;75.30;;;;;;2337160;54;20992;-66
2024/03/14 07:23:14;;;;;;;2.95;0.90;;;10.00;75.40;;;;;;2339521;53;21037;-67
2024/03/14 07:25:41;;;;;;;1.95;0.90;;;10.00;75.50;;;;;;2317787;53;20917;-68
2024/03/14 07:28:09;;;;;;;2.28;1.08;;;10.10;75.70;;;;;;2582106;53;21402;-68
2024/03/14 07:30:39;;;;;;;2.92;1.67;;;10.10;75.70;;;;;;2337467;54;21108;-68
2024/03/14 07:33:08;;;;;;;2.65;1.42;;;10.20;75.90;;;;;;2336700;54;21005;-68
2024/03/14 07:35:34;;;;;;;2.70;1.48;;;10.20;76.00;;;;;;2336989;54;21005;-68
2024/03/14 07:38:04;;;;;;;2.37;1.30;;;10.30;76.20;;;;;;2336752;54;20953;-68
2024/03/14 07:40:32;;;;;;;3.00;1.60;;;10.30;76.40;;;;;;2581823;53;21052;-68
2024/03/14 07:42:59;;;;;;;2.78;1.52;;;10.40;76.60;;;;;;2336462;54;20961;-67
2024/03/14 07:45:26;;;;;;;2.80;1.40;;;10.50;76.80;;;;;;2337081;54;21052;-67
2024/03/14 07:47:52;;;;;;;2.67;1.30;;;10.50;76.90;;;;;;2336500;54;21021;-67
2024/03/14 07:50:22;;;;;;;2.53;1.15;;;10.60;77.20;;;;;;2336693;54;20937;-68
2024/03/14 07:52:48;;;;;;;2.83;1.40;;;10.70;77.40;;;;;;2581846;53;20937;-68
2024/03/14 07:55:16;;;;;;;3.05;1.55;;;10.80;77.70;;;;;;2582394;53;20949;-66
2024/03/14 07:57:43;;;;;;;2.60;1.20;;;10.80;77.70;;;;;;2337178;54;21162;-68
2024/03/14 08:00:09;;;;;;;2.70;1.40;;;10.90;77.90;;;;;;2581221;53;20981;-69
2024/03/14 08:02:39;;;;;;;2.60;1.20;;;11.00;78.00;;;;;;2581898;53;20957;-67
2024/03/14 08:05:08;;;;;;;2.62;1.30;;;11.10;78.20;;;;;;2336217;54;20965;-68
2024/03/14 08:07:37;;;;;;;3.28;1.60;;;11.20;78.30;;;;;;2337196;54;20993;-68
2024/03/14 08:10:08;;;;;;;3.53;1.60;;;11.30;78.40;;;;;;2581785;53;21030;-69
2024/03/14 08:12:34;;;;;;;3.50;1.90;;;11.40;78.50;;;;;;2581601;53;21039;-66
2024/03/14 08:15:21;;;;;;;4.37;1.77;;;11.40;78.50;;;;;;2335540;54;21024;-67
2024/03/14 08:17:48;;;;;;;4.12;2.12;;;11.50;78.50;;;;;;2582394;53;20930;-69
2024/03/14 08:20:17;;;;;;;3.60;1.95;;;11.60;78.60;;;;;;2581950;53;20958;-68
2024/03/14 08:22:44;;;;;;;4.35;2.42;;;11.70;78.70;;;;;;2582394;53;20981;-67
2024/03/14 08:25:16;;;;;;;4.43;2.33;;;11.80;78.90;;;;;;2581390;53;21088;-67
2024/03/14 08:27:43;;;;;;;3.87;2.25;;;11.90;79.20;;;;;;2581795;52;21635;-67
2024/03/14 08:30:11;;;;;;;3.20;1.75;;;12.00;79.50;;;;;;2335178;54;20984;-68
2024/03/14 08:32:42;;;;;;;3.90;2.25;;;12.10;79.80;;;;;;2337099;54;21756;-68
2024/03/14 08:35:10;;;;;;;3.47;2.00;;;12.20;79.90;;;;;;2581454;53;20938;-69
2024/03/14 08:37:36;;;;;;;3.53;2.12;;;12.30;80.00;;;;;;2337032;54;20957;-67
2024/03/14 08:40:05;;;;;;;3.50;2.25;;;12.40;80.20;;;;;;2336368;54;20997;-67
2024/03/14 08:42:37;;;;;;;3.12;2.00;;;12.60;80.40;;;;;;2582181;53;20954;-68
2024/03/14 08:45:06;;;;;;;3.35;2.10;;;12.60;80.50;;;;;;2336665;54;20968;-68
2024/03/14 08:47:34;;;;;;;3.25;1.92;;;12.80;80.70;;;;;;2582131;53;21759;-67
2024/03/14 08:50:04;;;;;;;2.90;1.77;;;12.90;80.80;;;;;;2335913;53;20953;-67
2024/03/14 08:52:31;;;;;;;3.30;1.98;;;13.00;80.80;;;;;;2337113;54;21277;-68
2024/03/14 08:54:58;;;;;;;2.97;1.62;;;13.10;80.90;;;;;;2581963;53;20988;-67
2024/03/14 08:57:26;;;;;;;3.30;2.00;;;13.20;80.90;;;;;;2581872;53;21005;-68
2024/03/14 08:59:55;;;;;;;2.95;1.80;;;13.40;81.00;;;;;;2337508;54;21005;-68
2024/03/14 09:02:23;;;;;;;2.95;1.92;;;13.40;81.00;;;;;;2314083;53;20905;-68
2024/03/14 09:04:52;;;;;;;5.30;2.17;;;13.50;81.00;;;;;;2555091;53;21492;-68
2024/03/14 09:07:20;;;;;;;3.50;2.03;;;13.60;81.20;;;;;;2554487;53;20973;-68
2024/03/14 09:09:46;;;;;;;3.67;2.17;;;13.70;81.60;;;;;;2328562;53;20960;-68
2024/03/14 09:12:25;;;;;;;2.60;1.70;;;13.90;82.50;;;;;;2561256;53;20936;-67
2024/03/14 09:14:55;;;;;;;3.00;1.70;;;14.00;83.00;;;;;;2548738;53;20930;-68
2024/03/14 09:17:22;;;;;;;3.55;1.48;;;14.20;83.20;;;;;;2316884;54;20959;-68
2024/03/14 09:19:48;;;;;;;2.55;1.35;;;14.30;83.30;;;;;;2341376;53;21286;-68
2024/03/14 09:22:14;;;;;;;2.78;1.40;;;14.50;83.20;;;;;;2587198;53;21235;-67
2024/03/14 09:24:41;;;;;;;2.50;1.15;;;14.60;82.90;;;;;;2341724;53;21226;-69
2024/03/14 09:27:07;;;;;;;2.10;1.10;;;14.70;82.60;;;;;;2586700;53;21744;-69
2024/03/14 09:29:36;;;;;;;2.40;1.37;;;14.80;82.30;;;;;;2341376;53;20950;-68
2024/03/14 09:32:05;;;;;;;2.62;1.30;;;14.90;82.10;;;;;;2341507;53;21006;-69
2024/03/14 09:34:32;;;;;;;2.40;1.10;;;15.00;81.90;;;;;;2587783;53;21018;-68
2024/03/14 09:36:58;;;;;;;2.55;1.10;;;15.10;81.60;;;;;;2587997;53;21826;-68
2024/03/14 09:39:35;;;;;;;2.87;1.10;;;15.20;81.70;;;;;;2314773;53;20945;-68
2024/03/14 09:42:01;;;;;;;3.40;1.05;;;15.30;81.70;;;;;;2554729;53;20929;-68
2024/03/14 09:44:28;;;;;;;2.47;1.00;;;15.40;81.60;;;;;;2555245;53;20932;-69
2024/03/14 09:47:05;;;;;;;2.25;1.05;;;15.60;81.60;;;;;;2314585;53;20993;-68
2024/03/14 09:49:32;;;;;;;2.05;1.00;;;15.60;81.20;;;;;;2314438;53;21383;-69
2024/03/14 09:51:59;;;;;;;2.03;0.88;;;15.70;81.50;;;;;;2313932;53;20925;-69
2024/03/14 09:54:26;;;;;;;2.40;0.93;;;15.80;81.60;;;;;;2314467;53;21096;-69
2024/03/14 09:56:53;;;;;;;2.65;1.37;;;15.90;81.40;;;;;;2314471;53;20929;-68
2024/03/14 09:59:20;;;;;;;2.42;1.33;;;16.00;81.30;;;;;;2313517;53;21518;-68
2024/03/14 10:01:48;;;;;;;2.62;1.30;;;16.00;81.10;;;;;;2324784;53;20979;-67
2024/03/14 10:04:15;;;;;;;3.08;1.40;;;16.10;81.00;;;;;;2566533;53;22133;-67
2024/03/14 10:06:42;;;;;;;2.53;1.17;;;16.20;80.90;;;;;;2314942;53;21000;-67
2024/03/14 10:09:12;;;;;;;3.17;1.77;;;16.30;81.00;;;;;;2561292;53;20964;-68
2024/03/14 10:11:44;;;;;;;3.67;2.00;;;16.40;81.00;;;;;;2568415;53;21040;-68
2024/03/14 10:14:16;;;;;;;3.50;1.80;;;16.40;80.90;;;;;;2554489;53;21297;-69
2024/03/14 10:16:43;;;;;;;;;;;16.50;80.80;;;;;;2572145;53;21500;-69
2024/03/14 10:19:09;;;;;;;2.92;1.58;;;16.70;79.50;;;;;;2320862;53;20096;-68
2024/03/14 10:21:36;;;;;;;3.78;2.30;;;16.70;80.70;;;;;;2314465;53;21030;-69
2024/03/14 10:24:09;;;;;;;3.30;1.77;;;16.70;80.80;;;;;;2314278;53;20960;-67
2024/03/14 10:26:44;;;;;;;3.50;2.08;;;16.80;81.00;;;;;;2314328;53;20993;-67
2024/03/14 10:29:14;;;;;;;2.80;1.60;;;16.90;81.00;;;;;;2314101;53;21446;-68
2024/03/14 10:31:43;;;;;;;2.80;1.40;;;16.90;81.00;;;;;;2314356;53;21056;-68
2024/03/14 10:34:10;;;;;;;2.90;1.77;;;17.00;81.00;;;;;;2314572;53;20996;-70
2024/03/14 10:36:41;;;;;;;3.50;1.73;;;17.10;81.50;;;;;;2554458;53;20992;-70
2024/03/14 10:39:16;;;;;;;2.90;1.55;;;17.30;81.20;;;;;;2554266;53;20949;-69
2024/03/14 10:41:50;;;;;;;3.30;1.95;;;17.30;81.20;;;;;;2314624;53;21352;-69
2024/03/14 10:44:21;;;;;;;3.37;1.58;;;17.40;81.50;;;;;;2554509;53;20940;-69
2024/03/14 10:46:51;;;;;;;2.75;1.77;;;17.50;81.70;;;;;;2315073;53;20984;-68
2024/03/14 10:49:19;;;;;;;3.40;1.70;;;17.60;81.60;;;;;;2568711;53;20939;-69
2024/03/14 10:51:54;;;;;;;4.68;1.80;;;17.70;81.70;;;;;;2563450;53;20965;-67
2024/03/14 10:54:23;;;;;;;2.50;1.30;;;17.70;81.10;;;;;;2314359;53;20949;-67
2024/03/14 10:56:50;;;;;;;2.62;1.40;;;17.80;81.90;;;;;;2555475;53;21468;-69
2024/03/14 10:59:16;;;;;;;2.97;1.73;;;17.90;82.20;;;;;;2327830;53;20995;-68
2024/03/14 11:01:54;;;;;;;2.28;1.20;;;18.00;82.30;;;;;;2563813;53;20937;-68
2024/03/14 11:04:26;;;;;;;2.87;1.40;;;18.10;82.00;;;;;;2562133;53;20991;-68
2024/03/14 11:06:54;;;;;;;2.60;1.42;;;18.20;81.70;;;;;;2305333;54;21066;-68
2024/03/14 11:09:25;;;;;;;3.92;1.75;;;18.20;81.50;;;;;;2314110;53;21466;-68
2024/03/14 11:11:57;;;;;;;3.22;1.70;;;18.30;81.40;;;;;;2315191;53;21241;-68
2024/03/14 11:14:45;;;;;;;2.95;1.75;;;18.40;81.20;;;;;;2314470;53;20960;-67
2024/03/14 11:17:14;;;;;;;4.47;1.67;;;18.50;80.40;;;;;;2313717;54;21008;-70
2024/03/14 11:19:42;;;;;;;3.12;1.62;;;18.50;81.40;;;;;;2555329;53;21964;-69
2024/03/14 11:22:09;;;;;;;2.87;1.52;;;18.60;81.10;;;;;;2554728;53;20994;-69
2024/03/14 11:24:40;;;;;;;2.47;1.40;;;18.70;81.00;;;;;;2315068;53;20923;-68
2024/03/14 11:27:06;;;;;;;2.30;1.17;;;18.70;80.50;;;;;;2314075;55;21384;-69
2024/03/14 11:29:33;;;;;;;2.92;1.23;;;18.80;81.00;;;;;;2570435;53;20951;-68
2024/03/14 11:32:33;;;;;;;2.65;1.17;;;18.80;80.70;;;;;;2338082;53;20964;-68
2024/03/14 11:35:28;;;;;;;2.10;1.00;;;18.90;79.20;;;;;;2583120;53;20940;-67
2024/03/14 11:37:54;;;;;;;2.08;0.80;;;19.00;79.30;;;;;;2337099;53;21037;-68
2024/03/14 11:40:24;;;;;;;2.40;1.10;;;19.00;80.60;;;;;;2335700;54;20997;-67
2024/03/14 11:42:54;;;;;;;1.98;0.80;;;19.10;80.80;;;;;;2337310;54;21013;-68
2024/03/14 11:45:20;;;;;;;2.30;0.85;;;19.20;80.90;;;;;;2336700;54;20917;-67
2024/03/14 11:47:48;;;;;;;1.90;0.80;;;19.20;80.50;;;;;;2341409;54;20942;-68
2024/03/14 11:50:22;;;;;;;1.50;0.70;;;19.30;80.30;;;;;;2336602;53;20968;-69
2024/03/14 11:52:53;;;;;;;1.62;0.70;;;19.30;80.50;;;;;;2336148;54;21250;-68
2024/03/14 11:55:19;;;;;;;1.85;0.65;;;19.40;80.90;;;;;;2336465;54;20969;-68
2024/03/14 11:57:49;;;;;;;1.60;0.60;;;19.50;81.30;;;;;;2336240;53;20929;-68
2024/03/14 12:00:20;;;;;;;2.92;0.85;;;19.60;81.50;;;;;;2581631;53;21048;-68
2024/03/14 12:02:49;;;;;;;1.55;0.70;;;19.60;80.90;;;;;;2337240;54;20929;-68
2024/03/14 12:05:25;;;;;;;1.70;0.40;;;19.70;80.60;;;;;;2336246;54;21000;-67
2024/03/14 12:07:54;;;;;;;0.98;0.50;;;19.70;80.70;;;;;;2582675;53;21265;-69
2024/03/14 12:10:22;;;;;;;1.45;0.60;;;19.80;80.80;;;;;;2581078;53;21000;-68
2024/03/14 12:12:51;;;;;;;1.00;0.45;;;19.90;80.60;;;;;;2582149;53;21364;-67
2024/03/14 12:15:18;;;;;;;1.10;0.50;;;19.90;80.40;;;;;;2335841;53;20930;-69
2024/03/14 12:17:51;;;;;;;1.40;0.55;;;20.00;80.30;;;;;;2337167;54;21068;-68
2024/03/14 12:20:18;;;;;;;0.93;0.47;;;20.00;79.80;;;;;;2336446;53;21041;-68
2024/03/14 12:22:46;;;;;;;1.00;0.60;;;20.10;79.60;;;;;;2337047;54;20948;-69
2024/03/14 12:25:15;;;;;;;1.00;0.50;;;20.10;79.30;;;;;;2337055;54;21417;-67
2024/03/14 12:27:44;;;;;;;1.30;0.50;;;20.20;78.50;;;;;;2336926;54;21771;-69
2024/03/14 12:30:11;;;;;;;1.45;0.60;;;20.20;79.00;;;;;;2337432;54;20925;-67
2024/03/14 12:32:40;;;;;;;1.77;0.57;;;20.20;79.00;;;;;;2336576;54;21022;-69
2024/03/14 12:35:13;;;;;;;2.33;0.70;;;20.20;79.10;;;;;;2336785;54;21258;-67
2024/03/14 12:37:42;;;;;;;;;;;20.30;78.70;;;;;;2340427;54;20930;-68
2024/03/14 12:40:11;;;;;;;3.33;0.70;;;20.20;76.70;;;;;;2337127;54;20051;-68
2024/03/14 12:42:41;;;;;;;1.30;0.60;;;20.30;78.30;;;;;;2336662;54;21008;-69
2024/03/14 12:45:08;;;;;;;1.87;0.75;;;20.30;77.50;;;;;;2582299;53;21021;-68
2024/03/14 12:47:34;;;;;;;1.50;0.50;;;20.30;77.70;;;;;;2337053;54;21040;-68
2024/03/14 12:50:01;;;;;;;2.15;0.80;;;20.30;78.00;;;;;;2582581;53;21813;-67
2024/03/14 12:52:29;;;;;;;2.53;0.80;;;20.40;78.10;;;;;;2336802;54;21139;-70
2024/03/14 12:54:56;;;;;;;2.08;0.73;;;20.40;77.90;;;;;;2582409;53;21522;-68